createdAt,value
2019-02-28T00:01:43.157Z,36.93
2019-02-28T00:04:12.751Z,35.80
2019-02-28T00:06:44.262Z,37.20
2019-02-28T00:09:13.737Z,40.90
2019-02-28T00:11:42.192Z,35.83
2019-02-28T00:14:10.873Z,34.13
2019-02-28T00:16:40.965Z,35.10
2019-02-28T00:19:11.025Z,35.33
2019-02-28T00:21:40.639Z,34.77
2019-02-28T00:24:09.649Z,34.40
2019-02-28T00:26:38.368Z,33.87
2019-02-28T00:29:06.773Z,36.37
2019-02-28T00:31:35.577Z,38.67
2019-02-28T00:34:05.465Z,33.23
2019-02-28T00:36:34.301Z,30.90
2019-02-28T00:39:04.091Z,35.47
2019-02-28T00:41:32.614Z,35.07
2019-02-28T00:44:01.172Z,30.37
2019-02-28T00:46:29.595Z,32.67
2019-02-28T00:48:58.036Z,32.23
2019-02-28T00:51:29.683Z,29.20
2019-02-28T00:53:58.445Z,32.57
2019-02-28T00:56:26.864Z,30.37
2019-02-28T00:58:55.584Z,29.87
2019-02-28T01:01:24.005Z,31.37
2019-02-28T01:03:53.896Z,29.03
2019-02-28T01:06:23.454Z,30.73
2019-02-28T01:08:56.045Z,28.83
2019-02-28T01:11:25.106Z,28.30
2019-02-28T01:13:54.737Z,29.03
2019-02-28T01:16:23.210Z,32.03
2019-02-28T01:18:51.595Z,26.13
2019-02-28T01:21:23.879Z,27.63
2019-02-28T01:23:51.968Z,28.80
2019-02-28T01:26:21.845Z,26.10
2019-02-28T01:28:51.566Z,26.40
2019-02-28T01:31:20.260Z,28.53
2019-02-28T01:33:52.038Z,28.83
2019-02-28T01:36:20.448Z,27.13
2019-02-28T01:38:50.247Z,26.43
2019-02-28T01:41:21.014Z,30.93
2019-02-28T01:43:52.780Z,26.63
2019-02-28T01:46:24.493Z,28.37
2019-02-28T01:48:55.127Z,24.07
2019-02-28T01:51:26.701Z,25.73
2019-02-28T01:53:57.662Z,24.03
2019-02-28T01:56:28.856Z,25.27
2019-02-28T01:58:58.383Z,25.27
2019-02-28T02:01:31.014Z,27.30
2019-02-28T02:04:00.411Z,24.73
2019-02-28T02:06:30.183Z,25.33
2019-02-28T02:09:02.373Z,26.60
2019-02-28T02:11:32.496Z,25.30
2019-02-28T02:14:01.261Z,25.57
2019-02-28T02:16:33.828Z,26.10
2019-02-28T02:19:02.238Z,24.40
2019-02-28T02:21:31.379Z,23.47
2019-02-28T02:24:02.610Z,22.37
2019-02-28T02:26:31.955Z,24.03
2019-02-28T02:29:01.933Z,22.73
2019-02-28T02:31:33.873Z,22.83
2019-02-28T02:34:02.290Z,20.90
2019-02-28T02:36:33.766Z,23.97
2019-02-28T02:39:07.736Z,21.70
2019-02-28T02:41:37.518Z,21.67
2019-02-28T02:44:06.196Z,23.97
2019-02-28T02:46:34.749Z,24.43
2019-02-28T02:49:03.171Z,22.60
2019-02-28T02:51:34.525Z,22.30
2019-02-28T02:54:05.554Z,22.23
2019-02-28T02:56:40.731Z,19.67
2019-02-28T02:59:08.538Z,22.73
2019-02-28T03:01:37.310Z,22.97
2019-02-28T03:04:06.030Z,25.03
2019-02-28T03:06:36.983Z,22.27
2019-02-28T03:09:09.878Z,21.93
2019-02-28T03:11:39.822Z,21.27
2019-02-28T03:14:08.500Z,20.53
2019-02-28T03:16:37.368Z,22.40
2019-02-28T03:19:05.822Z,20.37
2019-02-28T03:21:36.066Z,22.53
2019-02-28T03:24:05.807Z,20.27
2019-02-28T03:26:41.600Z,18.80
2019-02-28T03:29:07.923Z,21.77
2019-02-28T03:31:37.516Z,18.87
2019-02-28T03:34:12.778Z,18.30
2019-02-28T03:36:42.508Z,20.47
2019-02-28T03:39:13.014Z,19.67
2019-02-28T03:41:41.449Z,19.17
2019-02-28T03:44:19.720Z,19.60
2019-02-28T03:46:46.741Z,19.50
2019-02-28T03:49:17.861Z,18.17
2019-02-28T03:51:46.650Z,17.23
2019-02-28T03:54:15.330Z,19.80
2019-02-28T03:56:51.018Z,20.63
2019-02-28T03:59:18.992Z,18.23
2019-02-28T04:01:47.421Z,19.73
2019-02-28T04:04:16.403Z,19.67
2019-02-28T04:06:44.930Z,18.07
2019-02-28T04:09:13.904Z,18.97
2019-02-28T04:11:42.578Z,16.50
2019-02-28T04:14:11.025Z,17.13
2019-02-28T04:16:39.554Z,18.57
2019-02-28T04:19:07.997Z,16.63
2019-02-28T04:21:36.686Z,17.97
2019-02-28T04:24:12.692Z,18.90
2019-02-28T04:26:36.420Z,18.97
2019-02-28T04:29:05.429Z,16.60
2019-02-28T04:31:35.063Z,19.13
2019-02-28T04:34:05.042Z,20.27
2019-02-28T04:36:35.847Z,17.23
2019-02-28T04:39:05.993Z,15.80
2019-02-28T04:41:35.960Z,16.90
2019-02-28T04:44:05.618Z,15.03
2019-02-28T04:46:35.505Z,16.17
2019-02-28T04:49:03.921Z,14.13
2019-02-28T04:51:37.105Z,16.53
2019-02-28T04:54:08.113Z,15.10
2019-02-28T04:56:38.645Z,16.23
2019-02-28T04:59:09.820Z,16.20
2019-02-28T05:01:40.361Z,14.67
2019-02-28T05:04:11.696Z,14.93
2019-02-28T05:06:42.245Z,15.40
2019-02-28T05:09:14.508Z,17.93
2019-02-28T05:11:41.802Z,14.77
2019-02-28T05:14:11.650Z,16.77
2019-02-28T05:16:43.410Z,14.73
2019-02-28T05:19:13.286Z,14.80
2019-02-28T05:21:43.034Z,15.63
2019-02-28T05:24:12.850Z,13.63
2019-02-28T05:26:41.272Z,15.17
2019-02-28T05:29:13.067Z,13.57
2019-02-28T05:31:43.705Z,14.67
2019-02-28T05:34:16.020Z,15.30
2019-02-28T05:36:48.508Z,14.47
2019-02-28T05:39:18.545Z,14.80
2019-02-28T05:41:50.413Z,14.77
2019-02-28T05:44:21.357Z,13.20
2019-02-28T05:46:51.186Z,14.37
2019-02-28T05:49:21.013Z,12.47
2019-02-28T05:51:49.428Z,13.00
2019-02-28T05:54:18.966Z,14.30
2019-02-28T05:56:49.060Z,13.80
2019-02-28T05:59:17.729Z,14.33
2019-02-28T06:01:47.770Z,12.73
2019-02-28T06:04:17.795Z,13.30
2019-02-28T06:06:51.433Z,14.77
2019-02-28T06:09:19.118Z,12.17
2019-02-28T06:11:50.753Z,12.23
2019-02-28T06:14:26.647Z,13.00
2019-02-28T06:16:52.025Z,12.13
2019-02-28T06:19:20.716Z,12.30
2019-02-28T06:21:53.034Z,15.07
2019-02-28T06:24:22.911Z,13.03
2019-02-28T06:26:52.894Z,11.37
2019-02-28T06:29:21.581Z,12.53
2019-02-28T06:31:50.702Z,10.90
2019-02-28T06:34:21.656Z,11.57
2019-02-28T06:36:52.241Z,14.77
2019-02-28T06:39:26.798Z,12.70
2019-02-28T06:41:56.550Z,12.43
2019-02-28T06:44:27.055Z,11.93
2019-02-28T06:46:57.251Z,11.27
2019-02-28T06:49:28.107Z,11.37
2019-02-28T06:51:57.080Z,11.77
2019-02-28T06:54:27.409Z,15.20
2019-02-28T06:56:55.829Z,12.80
2019-02-28T06:59:24.252Z,12.57
2019-02-28T07:01:56.634Z,10.77
2019-02-28T07:04:24.257Z,10.60
2019-02-28T07:06:54.237Z,12.70
2019-02-28T07:09:25.426Z,10.67
2019-02-28T07:11:55.768Z,10.67
2019-02-28T07:14:25.932Z,10.93
2019-02-28T07:16:54.358Z,12.57
2019-02-28T07:19:26.276Z,10.77
2019-02-28T07:21:53.638Z,13.43
2019-02-28T07:24:23.583Z,11.53
2019-02-28T07:26:53.023Z,10.70
2019-02-28T07:29:22.245Z,9.50
2019-02-28T07:31:51.498Z,11.97
2019-02-28T07:34:23.804Z,11.17
2019-02-28T07:36:51.773Z,10.97
2019-02-28T07:39:20.773Z,13.77
2019-02-28T07:41:53.799Z,10.40
2019-02-28T07:44:25.133Z,13.40
2019-02-28T07:46:53.891Z,10.50
2019-02-28T07:49:25.752Z,11.17
2019-02-28T07:51:56.954Z,11.47
2019-02-28T07:54:26.282Z,12.23
2019-02-28T07:56:55.053Z,10.63
2019-02-28T07:59:25.790Z,10.30
2019-02-28T08:01:55.524Z,10.63
2019-02-28T08:04:24.226Z,10.50
2019-02-28T08:06:54.921Z,10.23
2019-02-28T08:09:29.206Z,9.77
2019-02-28T08:11:58.955Z,10.73
2019-02-28T08:14:30.783Z,10.43
2019-02-28T08:16:59.197Z,11.47
2019-02-28T08:19:28.167Z,10.13
2019-02-28T08:21:56.561Z,12.10
2019-02-28T08:24:26.592Z,10.43
2019-02-28T08:26:56.857Z,11.63
2019-02-28T08:29:26.321Z,19.17
2019-02-28T08:31:57.564Z,12.77
2019-02-28T08:34:25.968Z,15.17
2019-02-28T08:36:54.386Z,13.77
2019-02-28T08:39:24.285Z,14.00
2019-02-28T08:41:53.001Z,15.10
2019-02-28T08:44:24.075Z,13.47
2019-02-28T08:46:54.762Z,9.67
2019-02-28T08:49:24.010Z,11.47
2019-02-28T08:51:52.695Z,14.03
2019-02-28T08:54:26.247Z,10.30
2019-02-28T08:56:52.818Z,10.00
2019-02-28T08:59:22.652Z,14.33
2019-02-28T09:01:51.526Z,12.83
2019-02-28T09:04:22.058Z,12.77
2019-02-28T09:06:51.745Z,13.83
2019-02-28T09:09:21.064Z,9.77
2019-02-28T09:11:52.775Z,15.47
2019-02-28T09:14:22.398Z,13.17
2019-02-28T09:16:51.091Z,13.80
2019-02-28T09:19:20.903Z,12.97
2019-02-28T09:21:52.744Z,12.87
2019-02-28T09:24:22.322Z,13.10
2019-02-28T09:26:51.788Z,12.80
2019-02-28T09:29:21.321Z,14.33
2019-02-28T09:31:50.596Z,12.57
2019-02-28T09:34:19.007Z,12.70
2019-02-28T09:36:47.449Z,14.70
2019-02-28T09:39:19.459Z,12.90
2019-02-28T09:41:49.885Z,15.40
2019-02-28T09:44:19.152Z,13.57
2019-02-28T09:46:50.712Z,12.40
2019-02-28T09:49:19.329Z,12.73
2019-02-28T09:51:49.977Z,16.03
2019-02-28T09:54:21.474Z,16.70
2019-02-28T09:56:51.741Z,15.37
2019-02-28T09:59:23.183Z,14.37
2019-02-28T10:02:00.930Z,14.53
2019-02-28T10:04:23.241Z,16.10
2019-02-28T10:06:52.231Z,19.10
2019-02-28T10:09:21.958Z,15.53
2019-02-28T10:11:51.067Z,15.67
2019-02-28T10:14:19.794Z,19.87
2019-02-28T10:16:52.653Z,16.33
2019-02-28T10:19:28.834Z,17.17
2019-02-28T10:22:25.301Z,17.07
2019-02-28T10:25:03.665Z,15.47
2019-02-28T10:27:54.577Z,13.87
2019-02-28T10:30:36.974Z,14.27
2019-02-28T10:33:17.375Z,14.50
2019-02-28T10:35:48.385Z,10.13
2019-02-28T10:38:29.377Z,13.73
2019-02-28T10:41:06.944Z,11.03
2019-02-28T10:43:52.094Z,10.50
2019-02-28T10:49:24.118Z,10.50
2019-02-28T10:52:04.821Z,8.80
2019-02-28T10:54:40.442Z,10.13
2019-02-28T11:00:15.006Z,9.73
2019-02-28T11:02:53.715Z,9.17
2019-02-28T11:05:36.723Z,6.47
2019-02-28T11:08:19.185Z,6.63
2019-02-28T11:10:57.658Z,8.37
2019-02-28T11:13:39.841Z,9.93
2019-02-28T11:16:11.577Z,7.80
2019-02-28T11:18:52.416Z,7.43
2019-02-28T11:21:29.726Z,8.83
2019-02-28T11:24:03.586Z,6.70
2019-02-28T11:29:40.074Z,6.17
2019-02-28T11:32:10.757Z,7.30
2019-02-28T11:34:49.683Z,6.83
2019-02-28T11:37:46.145Z,8.23
2019-02-28T11:40:23.306Z,6.23
2019-02-28T11:45:56.500Z,7.57
2019-02-28T11:48:30.481Z,7.57
2019-02-28T11:51:01.978Z,7.13
2019-02-28T11:53:40.350Z,7.77
2019-02-28T11:56:09.939Z,6.80
2019-02-28T11:58:51.705Z,9.77
2019-02-28T12:01:27.839Z,5.93
2019-02-28T12:03:57.853Z,5.83
2019-02-28T12:06:39.929Z,6.33
2019-02-28T12:09:16.258Z,6.53
2019-02-28T12:12:03.942Z,6.07
2019-02-28T12:14:34.931Z,6.40
2019-02-28T12:17:30.778Z,5.27
2019-02-28T12:19:59.678Z,7.40
2019-02-28T12:22:31.879Z,5.97
2019-02-28T12:25:07.660Z,6.03
2019-02-28T12:27:38.742Z,5.83
2019-02-28T12:30:16.478Z,5.63
2019-02-28T12:32:47.361Z,4.70
2019-02-28T12:35:47.311Z,5.57
2019-02-28T12:38:10.898Z,5.57
2019-02-28T12:40:45.612Z,6.83
2019-02-28T12:43:18.169Z,5.73
2019-02-28T12:46:00.128Z,5.40
2019-02-28T12:48:32.851Z,4.90
2019-02-28T12:51:11.304Z,5.43
2019-02-28T12:53:51.698Z,6.23
2019-02-28T12:56:29.346Z,4.93
2019-02-28T12:59:03.142Z,5.43
2019-02-28T13:01:37.887Z,5.20
2019-02-28T13:04:06.288Z,5.17
2019-02-28T13:06:38.315Z,5.37
2019-02-28T13:09:13.678Z,5.83
2019-02-28T13:11:55.171Z,5.57
2019-02-28T13:14:32.325Z,4.90
2019-02-28T13:17:10.471Z,5.30
2019-02-28T13:19:40.910Z,5.27
2019-02-28T13:22:10.550Z,5.43
2019-02-28T13:24:42.402Z,5.13
2019-02-28T13:27:11.866Z,4.70
2019-02-28T13:29:59.573Z,4.70
2019-02-28T13:32:33.771Z,5.30
2019-02-28T13:35:21.677Z,5.70
2019-02-28T13:37:58.947Z,4.87
2019-02-28T13:40:29.801Z,6.30
2019-02-28T13:43:07.418Z,4.67
2019-02-28T13:55:06.299Z,4.73
2019-02-28T13:57:46.831Z,5.07
2019-02-28T14:00:43.956Z,4.80
2019-02-28T14:06:28.235Z,5.00
2019-02-28T14:12:28.790Z,4.77
2019-02-28T14:14:51.804Z,6.73
2019-02-28T14:17:35.467Z,6.43
2019-02-28T14:20:18.538Z,4.60
2019-02-28T14:22:52.065Z,4.63
2019-02-28T14:25:29.582Z,4.87
2019-02-28T14:28:11.933Z,5.37
2019-02-28T14:30:44.606Z,5.07
2019-02-28T14:33:16.085Z,5.30
2019-02-28T14:35:53.775Z,4.90
2019-02-28T14:38:26.160Z,4.77
2019-02-28T14:40:59.289Z,4.90
2019-02-28T14:43:31.554Z,6.53
2019-02-28T14:46:10.144Z,12.80
2019-02-28T14:48:42.670Z,320.50
2019-02-28T14:51:14.566Z,989.43
2019-02-28T14:53:49.302Z,807.17
2019-02-28T14:56:17.759Z,890.60
2019-02-28T14:58:48.195Z,531.47
2019-02-28T15:01:20.569Z,256.70
2019-02-28T15:07:47.662Z,186.53
2019-02-28T15:09:38.840Z,155.67
2019-02-28T15:12:24.334Z,149.90
2019-02-28T15:18:03.505Z,121.50
2019-02-28T15:20:36.489Z,113.03
2019-02-28T15:23:05.405Z,113.50
2019-02-28T15:25:43.126Z,112.27
2019-02-28T15:28:13.834Z,94.50
2019-02-28T15:30:46.887Z,92.00
2019-02-28T15:33:38.123Z,86.27
2019-02-28T15:36:24.262Z,85.07
2019-02-28T15:39:05.160Z,81.50
2019-02-28T15:41:34.867Z,80.70
2019-02-28T15:50:04.218Z,74.37
2019-02-28T15:52:36.718Z,75.50
2019-02-28T15:55:04.617Z,67.23
2019-02-28T15:57:33.047Z,61.93
2019-02-28T16:00:01.471Z,69.37
2019-02-28T16:02:32.546Z,69.17
2019-02-28T16:05:05.408Z,61.37
2019-02-28T16:07:35.076Z,61.53
2019-02-28T16:10:03.778Z,58.87
2019-02-28T16:12:34.778Z,61.70
2019-02-28T16:15:08.493Z,65.97
2019-02-28T16:17:37.403Z,58.43
2019-02-28T16:20:08.741Z,56.17
2019-02-28T16:22:37.426Z,54.80
2019-02-28T16:25:15.744Z,54.77
2019-02-28T16:27:47.574Z,49.37
2019-02-28T16:30:19.312Z,93.60
2019-02-28T16:32:49.147Z,63.40
2019-02-28T16:35:18.943Z,47.03
2019-02-28T16:37:47.364Z,50.57
2019-02-28T16:40:20.275Z,49.60
2019-02-28T16:42:48.547Z,48.57
2019-02-28T16:45:20.570Z,49.83
2019-02-28T16:47:50.797Z,74.70
2019-02-28T16:50:22.581Z,47.77
2019-02-28T16:52:51.565Z,40.03
2019-02-28T16:55:20.007Z,36.20
2019-02-28T16:57:48.421Z,31.13
2019-02-28T17:00:17.957Z,35.93
2019-02-28T17:02:46.373Z,35.03
2019-02-28T17:05:15.066Z,29.60
2019-02-28T17:07:44.441Z,29.00
2019-02-28T17:10:18.559Z,30.77
2019-02-28T17:13:06.814Z,30.60
2019-02-28T17:15:40.616Z,27.23
2019-02-28T17:18:10.655Z,25.87
2019-02-28T17:20:40.758Z,28.37
2019-02-28T17:23:09.165Z,27.10
2019-02-28T17:25:37.609Z,27.53
2019-02-28T17:28:20.046Z,25.40
2019-02-28T17:30:54.314Z,23.17
2019-02-28T17:33:24.410Z,24.27
2019-02-28T17:35:55.537Z,22.87
2019-02-28T17:38:25.610Z,24.57
2019-02-28T17:40:54.037Z,25.77
2019-02-28T17:43:25.420Z,23.07
2019-02-28T17:45:56.588Z,22.30
2019-02-28T17:48:52.614Z,22.03
2019-02-28T17:51:35.652Z,23.20
2019-02-28T17:54:17.228Z,19.93
2019-02-28T17:57:24.357Z,20.33
2019-02-28T18:00:12.982Z,17.60
2019-02-28T18:03:18.795Z,17.17
2019-02-28T18:05:54.009Z,20.47
2019-02-28T18:08:49.974Z,24.80
2019-02-28T18:11:37.562Z,16.50
2019-02-28T18:14:21.417Z,18.47
2019-02-28T18:16:58.635Z,17.07
2019-02-28T18:19:58.192Z,19.63
2019-02-28T18:22:44.973Z,15.73
2019-02-28T18:25:32.140Z,15.63
2019-02-28T18:28:08.512Z,18.57
2019-02-28T18:31:08.161Z,13.50
2019-02-28T18:33:37.813Z,16.47
2019-02-28T18:36:08.343Z,16.83
2019-02-28T18:38:37.786Z,14.90
2019-02-28T18:41:06.593Z,15.53
2019-02-28T18:43:38.101Z,12.70
2019-02-28T18:46:06.548Z,14.37
2019-02-28T18:48:35.028Z,15.70
2019-02-28T18:51:04.014Z,14.40
2019-02-28T18:53:33.756Z,12.57
2019-02-28T18:56:06.678Z,11.20
2019-02-28T18:58:36.762Z,11.10
2019-02-28T19:01:05.161Z,13.00
2019-02-28T19:03:52.990Z,14.63
2019-02-28T19:06:21.394Z,12.43
2019-02-28T19:08:49.837Z,12.60
2019-02-28T19:11:18.527Z,13.07
2019-02-28T19:13:46.959Z,11.60
2019-02-28T19:16:17.949Z,12.27
2019-02-28T19:18:49.413Z,16.00
2019-02-28T19:21:21.426Z,12.93
2019-02-28T19:23:53.038Z,11.07
2019-02-28T19:26:21.451Z,11.13
2019-02-28T19:28:50.429Z,11.27
2019-02-28T19:31:18.861Z,14.43
2019-02-28T19:33:47.273Z,9.90
2019-02-28T19:36:21.532Z,10.53
2019-02-28T19:38:49.948Z,11.70
2019-02-28T19:41:18.380Z,12.10
2019-02-28T19:43:47.364Z,12.70
2019-02-28T19:46:17.939Z,12.13
2019-02-28T19:48:46.368Z,11.93
2019-02-28T19:51:17.457Z,11.83
2019-02-28T19:53:45.866Z,11.57
2019-02-28T19:56:14.583Z,10.57
2019-02-28T19:58:49.665Z,10.70
2019-02-28T20:01:23.796Z,10.43
2019-02-28T20:03:57.026Z,9.87
2019-02-28T20:06:25.453Z,10.53
2019-02-28T20:08:53.891Z,11.67
2019-02-28T20:11:22.302Z,10.90
2019-02-28T20:13:51.300Z,11.33
2019-02-28T20:16:20.280Z,11.37
2019-02-28T20:18:50.400Z,11.23
2019-02-28T20:21:18.834Z,10.73
2019-02-28T20:23:48.907Z,10.17
2019-02-28T20:26:17.333Z,10.00
2019-02-28T20:28:49.180Z,10.00
2019-02-28T20:31:19.225Z,11.10
2019-02-28T20:33:53.580Z,11.00
2019-02-28T20:36:22.006Z,12.03
2019-02-28T20:38:50.424Z,10.30
2019-02-28T20:41:18.856Z,10.83
2019-02-28T20:43:47.262Z,9.90
2019-02-28T20:46:16.521Z,10.93
2019-02-28T20:48:44.928Z,10.13
2019-02-28T20:51:13.360Z,12.47
2019-02-28T20:53:41.779Z,9.57
2019-02-28T20:56:10.207Z,9.20
2019-02-28T20:58:45.450Z,11.63
2019-02-28T21:01:14.019Z,11.60
2019-02-28T21:03:45.562Z,9.40
2019-02-28T21:06:15.657Z,10.33
2019-02-28T21:08:47.097Z,8.17
2019-02-28T21:11:18.989Z,9.40
2019-02-28T21:13:53.109Z,10.30
2019-02-28T21:16:22.639Z,8.93
2019-02-28T21:18:51.877Z,8.50
2019-02-28T21:21:20.284Z,8.73
2019-02-28T21:23:48.802Z,9.00
2019-02-28T21:26:17.215Z,10.33
2019-02-28T21:28:45.644Z,10.00
2019-02-28T21:31:14.059Z,7.10
2019-02-28T21:33:43.452Z,6.40
2019-02-28T21:36:15.251Z,10.27
2019-02-28T21:38:46.633Z,10.77
2019-02-28T21:41:15.048Z,8.07
2019-02-28T21:43:43.630Z,8.63
2019-02-28T21:46:16.566Z,7.03
2019-02-28T21:48:43.798Z,8.70
2019-02-28T21:51:13.070Z,9.70
2019-02-28T21:53:42.713Z,8.10
2019-02-28T21:56:12.281Z,7.97
2019-02-28T21:58:40.696Z,6.90
2019-02-28T22:01:09.138Z,8.20
2019-02-28T22:03:38.617Z,8.93
2019-02-28T22:06:07.056Z,7.50
2019-02-28T22:08:39.881Z,7.30
2019-02-28T22:11:09.948Z,7.13
2019-02-28T22:13:38.360Z,6.30
2019-02-28T22:16:09.737Z,7.17
2019-02-28T22:18:41.489Z,8.57
2019-02-28T22:21:11.011Z,6.97
2019-02-28T22:23:39.439Z,6.60
2019-02-28T22:26:07.832Z,7.53
2019-02-28T22:28:36.264Z,7.50
2019-02-28T22:31:07.345Z,6.80
2019-02-28T22:33:41.177Z,6.60
2019-02-28T22:36:12.662Z,9.20
2019-02-28T22:38:41.942Z,7.03
2019-02-28T22:41:11.437Z,6.70
2019-02-28T22:43:41.739Z,8.27
2019-02-28T22:46:13.054Z,6.80
2019-02-28T22:48:43.475Z,5.73
2019-02-28T22:51:15.660Z,11.63
2019-02-28T22:53:44.091Z,7.33
2019-02-28T22:56:13.737Z,6.53
2019-02-28T22:58:42.166Z,7.60
2019-02-28T23:01:16.064Z,6.73
2019-02-28T23:03:44.477Z,6.13
2019-02-28T23:06:17.465Z,6.67
2019-02-28T23:08:46.469Z,7.17
2019-02-28T23:11:14.886Z,6.13
2019-02-28T23:13:45.048Z,5.33
2019-02-28T23:16:20.482Z,4.63
2019-02-28T23:18:48.885Z,7.43
2019-02-28T23:21:17.311Z,6.37
2019-02-28T23:23:46.303Z,5.47
2019-02-28T23:26:14.744Z,5.97
2019-02-28T23:28:54.500Z,6.67
2019-02-28T23:31:52.754Z,6.47
2019-02-28T23:34:24.425Z,6.70
2019-02-28T23:36:55.577Z,5.23
2019-02-28T23:39:23.982Z,6.87
2019-02-28T23:41:56.557Z,6.33
2019-02-28T23:44:24.970Z,7.17
2019-02-28T23:46:57.789Z,7.27
2019-02-28T23:49:29.273Z,6.33
2019-02-28T23:51:57.812Z,7.93
2019-02-28T23:54:26.227Z,5.73
2019-02-28T23:56:54.633Z,7.03
2019-02-28T23:59:23.129Z,5.40
